createdAt,value
2022-10-22T00:01:01.497Z,16.13
2022-10-22T00:03:29.263Z,13.32
2022-10-22T00:05:57.226Z,15.43
2022-10-22T00:08:25.078Z,15.82
2022-10-22T00:10:53.190Z,15.13
2022-10-22T00:13:21.487Z,11.82
2022-10-22T00:15:49.241Z,11.20
2022-10-22T00:18:17.373Z,12.88
2022-10-22T00:20:45.103Z,10.57
2022-10-22T00:23:12.922Z,11.35
2022-10-22T00:25:40.862Z,9.40
2022-10-22T00:28:08.549Z,9.63
2022-10-22T00:30:36.324Z,8.95
2022-10-22T00:33:04.068Z,8.27
2022-10-22T00:35:31.624Z,12.40
2022-10-22T00:37:59.323Z,9.77
2022-10-22T00:40:27.343Z,9.48
2022-10-22T00:42:55.556Z,8.93
2022-10-22T00:45:27.954Z,7.32
2022-10-22T00:48:07.836Z,8.45
2022-10-22T00:50:42.231Z,9.63
2022-10-22T00:53:15.492Z,7.55
2022-10-22T00:55:45.268Z,8.23
2022-10-22T00:58:14.001Z,8.55
2022-10-22T01:00:42.274Z,6.60
2022-10-22T01:03:10.228Z,7.60
2022-10-22T01:05:54.789Z,6.10
2022-10-22T01:08:32.957Z,8.27
2022-10-22T01:11:25.723Z,7.70
2022-10-22T01:14:31.927Z,5.88
2022-10-22T01:17:10.034Z,7.55
2022-10-22T01:20:02.858Z,4.13
2022-10-22T01:22:44.876Z,8.93
2022-10-22T01:25:35.359Z,5.10
2022-10-22T01:28:21.911Z,4.72
2022-10-22T01:30:51.620Z,5.22
2022-10-22T01:33:23.198Z,3.63
2022-10-22T01:35:51.534Z,7.22
2022-10-22T01:38:22.291Z,3.85
2022-10-22T01:40:51.213Z,4.95
2022-10-22T01:43:19.265Z,3.88
2022-10-22T01:45:50.753Z,6.30
2022-10-22T01:48:46.199Z,6.95
2022-10-22T01:54:15.168Z,6.38
2022-10-22T01:56:59.665Z,3.70
2022-10-22T01:59:27.377Z,3.80
2022-10-22T02:02:02.052Z,4.22
2022-10-22T02:04:42.005Z,5.30
2022-10-22T02:07:13.212Z,4.18
2022-10-22T02:09:41.521Z,4.22
2022-10-22T02:12:10.059Z,3.90
2022-10-22T02:14:40.341Z,4.40
2022-10-22T02:17:11.461Z,5.20
2022-10-22T02:20:12.340Z,3.58
2022-10-22T02:22:40.428Z,4.28
2022-10-22T02:25:09.286Z,4.18
2022-10-22T02:27:46.788Z,2.95
2022-10-22T02:30:24.227Z,3.63
2022-10-22T02:32:54.416Z,3.90
2022-10-22T02:35:27.317Z,4.20
2022-10-22T02:37:56.444Z,4.15
2022-10-22T02:40:25.182Z,2.53
2022-10-22T02:42:53.315Z,2.45
2022-10-22T02:45:21.903Z,7.28
2022-10-22T02:47:50.003Z,2.85
2022-10-22T02:50:17.900Z,2.60
2022-10-22T02:52:45.784Z,3.08
2022-10-22T02:55:13.594Z,3.05
2022-10-22T02:57:41.850Z,3.97
2022-10-22T03:00:10.878Z,2.53
2022-10-22T03:02:38.878Z,2.22
2022-10-22T03:05:07.093Z,2.83
2022-10-22T03:07:35.173Z,2.30
2022-10-22T03:10:03.208Z,2.33
2022-10-22T03:12:31.171Z,3.05
2022-10-22T03:14:58.973Z,1.92
2022-10-22T03:17:26.782Z,3.58
2022-10-22T03:19:54.490Z,2.60
2022-10-22T03:22:28.412Z,3.30
2022-10-22T03:25:01.140Z,3.80
2022-10-22T03:27:30.538Z,4.00
2022-10-22T03:29:58.878Z,2.20
2022-10-22T03:32:26.613Z,3.90
2022-10-22T03:34:54.464Z,2.25
2022-10-22T03:37:22.750Z,2.17
2022-10-22T03:39:50.575Z,2.92
2022-10-22T03:42:18.445Z,1.60
2022-10-22T03:44:49.147Z,1.88
2022-10-22T03:47:17.096Z,1.50
2022-10-22T03:49:44.857Z,2.15
2022-10-22T03:52:14.599Z,2.92
2022-10-22T03:54:42.907Z,3.03
2022-10-22T03:57:11.577Z,2.63
2022-10-22T03:59:46.816Z,2.90
2022-10-22T04:02:14.974Z,2.15
2022-10-22T04:04:42.828Z,1.63
2022-10-22T04:07:10.739Z,1.42
2022-10-22T04:09:38.592Z,5.05
2022-10-22T04:12:08.191Z,2.42
2022-10-22T04:14:36.233Z,1.55
2022-10-22T04:17:06.082Z,1.80
2022-10-22T04:19:34.208Z,2.33
2022-10-22T04:22:02.048Z,1.67
2022-10-22T04:24:32.171Z,1.30
2022-10-22T04:27:00.068Z,2.25
2022-10-22T04:29:27.940Z,2.03
2022-10-22T04:31:55.657Z,1.48
2022-10-22T04:34:23.514Z,1.25
2022-10-22T04:36:51.318Z,2.65
2022-10-22T04:39:19.036Z,1.98
2022-10-22T04:41:46.722Z,1.30
2022-10-22T04:44:16.858Z,1.75
2022-10-22T04:46:45.850Z,1.80
2022-10-22T04:49:13.610Z,2.05
2022-10-22T04:51:42.095Z,1.90
2022-10-22T04:54:09.898Z,1.83
2022-10-22T04:56:37.623Z,1.25
2022-10-22T04:59:07.703Z,2.33
2022-10-22T05:01:43.004Z,2.53
2022-10-22T05:04:16.882Z,1.10
2022-10-22T05:06:45.015Z,1.45
2022-10-22T05:09:15.868Z,1.00
2022-10-22T05:11:51.287Z,1.33
2022-10-22T05:14:24.741Z,1.13
2022-10-22T05:16:53.387Z,3.13
2022-10-22T05:19:32.376Z,1.10
2022-10-22T05:22:02.494Z,2.45
2022-10-22T05:24:31.315Z,1.60
2022-10-22T05:27:00.252Z,1.58
2022-10-22T05:29:28.539Z,1.63
2022-10-22T05:31:56.453Z,1.10
2022-10-22T05:34:24.374Z,1.10
2022-10-22T05:36:52.155Z,1.55
2022-10-22T05:39:19.978Z,1.52
2022-10-22T05:41:47.758Z,1.85
2022-10-22T05:44:15.678Z,2.35
2022-10-22T05:46:43.671Z,0.98
2022-10-22T05:49:17.437Z,1.45
2022-10-22T05:51:45.265Z,2.58
2022-10-22T05:54:20.822Z,6.15
2022-10-22T05:56:49.204Z,7.70
2022-10-22T05:59:17.155Z,13.32
2022-10-22T06:01:44.953Z,12.00
2022-10-22T06:04:14.126Z,14.63
2022-10-22T06:06:44.866Z,15.75
2022-10-22T06:09:21.183Z,13.73
2022-10-22T06:11:49.494Z,18.30
2022-10-22T06:14:18.272Z,18.63
2022-10-22T06:16:46.257Z,16.65
2022-10-22T06:19:16.337Z,20.20
2022-10-22T06:21:44.686Z,16.63
2022-10-22T06:24:13.176Z,17.25
2022-10-22T06:26:41.570Z,17.55
2022-10-22T06:29:09.788Z,20.70
2022-10-22T06:31:37.661Z,21.20
2022-10-22T06:34:06.933Z,10.27
2022-10-22T06:36:35.227Z,14.88
2022-10-22T06:39:03.716Z,11.07
2022-10-22T06:41:31.775Z,14.15
2022-10-22T06:44:00.264Z,15.55
2022-10-22T06:46:28.629Z,13.45
2022-10-22T06:49:01.568Z,18.17
2022-10-22T06:51:29.920Z,19.52
2022-10-22T06:53:58.593Z,26.20
2022-10-22T06:56:28.691Z,22.55
2022-10-22T06:58:57.713Z,25.85
2022-10-22T07:01:31.262Z,19.33
2022-10-22T07:03:59.702Z,20.35
2022-10-22T07:06:29.467Z,22.73
2022-10-22T07:08:58.570Z,18.33
2022-10-22T07:11:31.558Z,27.50
2022-10-22T07:14:00.330Z,13.65
2022-10-22T07:16:31.290Z,17.65
2022-10-22T07:19:01.562Z,22.10
2022-10-22T07:21:30.135Z,18.55
2022-10-22T07:23:59.315Z,25.05
2022-10-22T07:26:31.042Z,19.70
2022-10-22T07:28:59.975Z,19.45
2022-10-22T07:31:27.754Z,20.48
2022-10-22T07:33:55.917Z,17.35
2022-10-22T07:36:23.777Z,24.98
2022-10-22T07:38:56.325Z,16.30
2022-10-22T07:41:24.781Z,26.40
2022-10-22T07:43:52.889Z,15.43
2022-10-22T07:46:21.386Z,23.27
2022-10-22T07:48:49.439Z,14.55
2022-10-22T07:51:17.683Z,18.48
2022-10-22T07:53:45.540Z,15.73
2022-10-22T07:56:14.220Z,17.52
2022-10-22T07:58:42.121Z,27.77
2022-10-22T08:01:09.992Z,17.77
2022-10-22T08:03:38.065Z,25.60
2022-10-22T08:06:06.199Z,21.05
2022-10-22T08:08:34.957Z,17.60
2022-10-22T08:11:03.073Z,16.38
2022-10-22T08:13:30.998Z,26.20
2022-10-22T08:16:02.447Z,20.05
2022-10-22T08:18:31.059Z,18.42
2022-10-22T08:20:59.170Z,16.42
2022-10-22T08:23:28.753Z,19.75
2022-10-22T08:25:57.653Z,17.27
2022-10-22T08:28:25.986Z,19.30
2022-10-22T08:30:53.684Z,18.60
2022-10-22T08:33:21.692Z,19.38
2022-10-22T08:35:53.395Z,20.38
2022-10-22T08:38:21.419Z,12.63
2022-10-22T08:41:10.446Z,19.70
2022-10-22T08:44:01.360Z,14.65
2022-10-22T08:46:40.311Z,16.60
2022-10-22T08:49:15.302Z,13.15
2022-10-22T08:54:47.561Z,15.55
2022-10-22T08:57:39.535Z,13.85
2022-10-22T09:00:34.793Z,15.60
2022-10-22T09:03:08.654Z,16.20
2022-10-22T09:05:56.244Z,19.30
2022-10-22T09:08:24.538Z,22.13
2022-10-22T09:11:15.458Z,19.02
2022-10-22T09:13:45.527Z,25.65
2022-10-22T09:16:21.213Z,33.03
2022-10-22T09:19:12.279Z,24.52
2022-10-22T09:21:45.865Z,20.20
2022-10-22T09:24:23.815Z,29.48
2022-10-22T09:26:52.265Z,31.20
2022-10-22T09:29:24.860Z,23.05
2022-10-22T09:31:52.852Z,18.58
2022-10-22T09:34:23.841Z,16.63
2022-10-22T09:37:03.964Z,19.73
2022-10-22T09:39:40.598Z,19.85
2022-10-22T09:42:08.999Z,18.60
2022-10-22T09:44:37.918Z,19.52
2022-10-22T09:47:07.363Z,14.40
2022-10-22T09:49:36.518Z,13.20
2022-10-22T09:52:06.351Z,10.07
2022-10-22T09:54:40.803Z,13.73
2022-10-22T09:57:14.561Z,21.95
2022-10-22T09:59:44.131Z,11.05
2022-10-22T10:02:37.980Z,16.17
2022-10-22T10:05:08.140Z,11.10
2022-10-22T10:07:36.811Z,8.82
2022-10-22T10:10:32.606Z,10.55
2022-10-22T10:13:29.542Z,8.88
2022-10-22T10:16:23.876Z,13.55
2022-10-22T10:19:02.280Z,12.95
2022-10-22T10:21:39.166Z,16.02
2022-10-22T10:24:24.427Z,10.20
2022-10-22T10:30:02.802Z,17.83
2022-10-22T10:32:30.618Z,11.38
2022-10-22T10:35:13.429Z,13.15
2022-10-22T10:38:20.532Z,6.63
2022-10-22T10:41:31.372Z,9.55
2022-10-22T10:44:18.698Z,13.55
2022-10-22T10:46:54.105Z,20.23
2022-10-22T10:49:29.818Z,17.45
2022-10-22T10:52:03.655Z,13.20
2022-10-22T10:54:36.456Z,13.07
2022-10-22T10:57:12.416Z,11.55
2022-10-22T11:00:00.666Z,22.48
2022-10-22T11:02:37.321Z,16.75
2022-10-22T11:05:14.118Z,18.52
2022-10-22T11:07:57.340Z,17.33
2022-10-22T11:10:49.335Z,15.93
2022-10-22T11:13:29.712Z,14.30
2022-10-22T11:16:17.726Z,15.70
2022-10-22T11:19:46.134Z,9.23
2022-10-22T11:22:33.985Z,9.90
2022-10-22T11:25:35.789Z,15.63
2022-10-22T11:28:37.359Z,14.43
2022-10-22T11:31:09.700Z,12.05
2022-10-22T11:34:04.966Z,6.13
2022-10-22T11:36:38.451Z,13.55
2022-10-22T11:39:06.372Z,10.20
2022-10-22T11:41:35.829Z,9.70
2022-10-22T11:44:12.230Z,13.82
2022-10-22T11:46:46.141Z,10.45
2022-10-22T11:49:18.421Z,9.13
2022-10-22T11:51:47.461Z,8.15
2022-10-22T11:54:32.015Z,11.18
2022-10-22T11:57:24.590Z,9.57
2022-10-22T11:59:58.375Z,9.93
2022-10-22T12:02:29.072Z,17.33
2022-10-22T12:05:16.354Z,9.05
2022-10-22T12:07:59.750Z,16.15
2022-10-22T12:10:47.859Z,12.70
2022-10-22T12:13:24.898Z,11.63
2022-10-22T12:15:55.337Z,12.68
2022-10-22T12:18:28.392Z,8.82
2022-10-22T12:20:56.597Z,15.40
2022-10-22T12:23:32.252Z,19.75
2022-10-22T12:25:59.929Z,12.18
2022-10-22T12:28:27.841Z,13.45
2022-10-22T12:30:55.762Z,7.90
2022-10-22T12:33:25.748Z,14.85
2022-10-22T12:35:57.803Z,10.32
2022-10-22T12:38:26.217Z,18.42
2022-10-22T12:40:56.482Z,14.13
2022-10-22T12:43:30.077Z,19.17
2022-10-22T12:45:57.994Z,10.10
2022-10-22T12:48:33.773Z,17.02
2022-10-22T12:51:03.965Z,9.02
2022-10-22T12:53:37.954Z,12.57
2022-10-22T12:56:16.841Z,10.90
2022-10-22T12:58:57.263Z,11.30
2022-10-22T13:01:32.580Z,11.55
2022-10-22T13:04:35.651Z,16.73
2022-10-22T13:07:18.460Z,14.00
2022-10-22T13:09:59.710Z,9.10
2022-10-22T13:12:34.711Z,9.85
2022-10-22T13:15:35.637Z,9.07
2022-10-22T13:18:17.937Z,5.85
2022-10-22T13:21:02.138Z,10.07
2022-10-22T13:23:32.620Z,13.98
2022-10-22T13:26:17.036Z,11.98
2022-10-22T13:28:51.515Z,14.67
2022-10-22T13:31:21.910Z,7.97
2022-10-22T13:33:57.395Z,11.55
2022-10-22T13:36:25.519Z,12.68
2022-10-22T13:38:53.254Z,12.55
2022-10-22T13:41:28.621Z,9.77
2022-10-22T13:43:57.218Z,11.30
2022-10-22T13:46:26.222Z,10.60
2022-10-22T13:48:55.620Z,10.68
2022-10-22T13:51:27.791Z,8.50
2022-10-22T13:53:55.514Z,6.07
2022-10-22T13:56:24.218Z,8.73
2022-10-22T13:58:52.042Z,6.57
2022-10-22T14:01:25.745Z,9.18
2022-10-22T14:03:58.536Z,14.55
2022-10-22T14:06:29.978Z,10.23
2022-10-22T14:09:09.024Z,13.77
2022-10-22T14:11:36.935Z,15.88
2022-10-22T14:14:08.918Z,15.65
2022-10-22T14:16:38.219Z,17.77
2022-10-22T14:19:08.133Z,9.25
2022-10-22T14:21:37.955Z,20.80
2022-10-22T14:24:08.246Z,13.50
2022-10-22T14:26:38.551Z,10.75
2022-10-22T14:29:10.749Z,12.95
2022-10-22T14:31:44.652Z,13.70
2022-10-22T14:34:14.687Z,14.23
2022-10-22T14:36:45.306Z,17.80
2022-10-22T14:39:14.162Z,10.95
2022-10-22T14:41:42.612Z,16.95
2022-10-22T14:44:12.901Z,10.35
2022-10-22T14:46:42.841Z,8.82
2022-10-22T14:49:11.207Z,13.35
2022-10-22T14:51:39.351Z,11.90
2022-10-22T14:54:07.244Z,14.00
2022-10-22T14:59:08.376Z,9.73
2022-10-22T15:01:36.048Z,15.77
2022-10-22T15:04:03.832Z,12.40
2022-10-22T15:06:31.608Z,11.75
2022-10-22T15:08:59.298Z,9.13
2022-10-22T15:11:27.536Z,12.70
2022-10-22T15:13:55.399Z,7.55
2022-10-22T15:16:23.282Z,14.13
2022-10-22T15:18:53.220Z,9.50
2022-10-22T15:21:22.407Z,12.73
2022-10-22T15:23:50.512Z,8.00
2022-10-22T15:26:19.211Z,12.02
2022-10-22T15:28:47.107Z,12.38
2022-10-22T15:31:15.396Z,17.13
2022-10-22T15:33:44.050Z,12.38
2022-10-22T15:36:16.865Z,11.93
2022-10-22T15:38:46.690Z,13.50
2022-10-22T15:41:14.621Z,10.07
2022-10-22T15:43:42.517Z,8.82
2022-10-22T15:46:15.442Z,15.10
2022-10-22T15:48:43.820Z,6.68
2022-10-22T15:51:16.006Z,13.30
2022-10-22T15:53:44.374Z,13.07
2022-10-22T15:56:12.618Z,13.75
2022-10-22T15:58:40.287Z,15.38
2022-10-22T16:01:10.258Z,10.30
2022-10-22T16:03:38.208Z,18.52
2022-10-22T16:06:07.581Z,10.93
2022-10-22T16:08:35.571Z,11.60
2022-10-22T16:11:03.561Z,9.52
2022-10-22T16:13:31.694Z,13.32
2022-10-22T16:15:59.313Z,8.48
2022-10-22T16:18:27.101Z,7.85
2022-10-22T16:20:54.887Z,8.80
2022-10-22T16:23:22.842Z,14.85
2022-10-22T16:25:50.563Z,11.27
2022-10-22T16:28:18.339Z,14.02
2022-10-22T16:30:46.315Z,16.05
2022-10-22T16:33:13.961Z,14.32
2022-10-22T16:35:44.905Z,11.50
2022-10-22T16:38:12.723Z,9.02
2022-10-22T16:40:40.487Z,12.80
2022-10-22T16:43:08.133Z,14.32
2022-10-22T16:45:35.788Z,8.48
2022-10-22T16:48:03.758Z,15.48
2022-10-22T16:50:31.437Z,15.18
2022-10-22T16:52:59.210Z,8.20
2022-10-22T16:55:26.912Z,12.70
2022-10-22T16:57:54.850Z,13.50
2022-10-22T17:00:22.724Z,13.68
2022-10-22T17:02:54.611Z,10.90
2022-10-22T17:05:22.937Z,7.82
2022-10-22T17:07:50.903Z,13.55
2022-10-22T17:10:20.022Z,8.18
2022-10-22T17:12:48.487Z,11.00
2022-10-22T17:15:16.355Z,8.98
2022-10-22T17:17:48.490Z,11.45
2022-10-22T17:20:16.371Z,10.70
2022-10-22T17:22:44.326Z,14.57
2022-10-22T17:25:17.846Z,8.50
2022-10-22T17:27:46.121Z,19.95
2022-10-22T17:30:23.376Z,8.93
2022-10-22T17:32:54.971Z,11.77
2022-10-22T17:35:22.818Z,9.55
2022-10-22T17:37:50.834Z,11.68
2022-10-22T17:40:18.730Z,8.57
2022-10-22T17:42:46.515Z,9.30
2022-10-22T17:45:14.315Z,10.43
2022-10-22T17:47:42.144Z,12.70
2022-10-22T17:50:10.552Z,14.02
2022-10-22T17:52:38.491Z,9.95
2022-10-22T17:55:06.584Z,9.70
2022-10-22T17:57:34.320Z,10.82
2022-10-22T18:00:02.135Z,12.95
2022-10-22T18:02:33.005Z,13.32
2022-10-22T18:05:00.743Z,12.80
2022-10-22T18:07:28.362Z,12.98
2022-10-22T18:09:59.034Z,10.23
2022-10-22T18:12:26.716Z,10.38
2022-10-22T18:14:54.895Z,8.60
2022-10-22T18:17:22.585Z,13.18
2022-10-22T18:19:50.394Z,7.22
2022-10-22T18:22:18.211Z,12.65
2022-10-22T18:24:46.072Z,7.18
2022-10-22T18:27:13.763Z,12.57
2022-10-22T18:29:41.416Z,14.35
2022-10-22T18:32:13.172Z,13.40
2022-10-22T18:34:41.277Z,13.80
2022-10-22T18:37:09.202Z,9.05
2022-10-22T18:39:36.940Z,10.70
2022-10-22T18:42:07.382Z,10.10
2022-10-22T18:44:36.037Z,17.00
2022-10-22T18:47:04.063Z,12.57
2022-10-22T18:49:32.051Z,13.27
2022-10-22T18:51:59.789Z,16.92
2022-10-22T18:54:27.652Z,14.02
2022-10-22T18:57:00.516Z,11.07
2022-10-22T18:59:29.837Z,16.52
2022-10-22T19:02:00.601Z,12.73
2022-10-22T19:04:33.781Z,16.63
2022-10-22T19:07:01.714Z,17.05
2022-10-22T19:09:29.601Z,13.20
2022-10-22T19:11:57.310Z,13.27
2022-10-22T19:14:24.994Z,14.10
2022-10-22T19:16:52.811Z,14.02
2022-10-22T19:19:21.858Z,11.43
2022-10-22T19:21:50.470Z,14.43
2022-10-22T19:24:19.937Z,9.15
2022-10-22T19:26:48.682Z,11.60
2022-10-22T19:29:18.609Z,8.13
2022-10-22T19:31:47.757Z,9.57
2022-10-22T19:34:15.659Z,9.38
2022-10-22T19:36:43.442Z,11.80
2022-10-22T19:39:11.150Z,6.35
2022-10-22T19:41:38.915Z,10.18
2022-10-22T19:44:06.703Z,11.25
2022-10-22T19:46:34.879Z,9.68
2022-10-22T19:49:05.750Z,12.95
2022-10-22T19:51:34.625Z,5.80
2022-10-22T19:54:07.693Z,8.98
2022-10-22T19:56:37.931Z,7.00
2022-10-22T19:59:06.239Z,8.10
2022-10-22T20:01:34.145Z,6.82
2022-10-22T20:04:01.992Z,6.18
2022-10-22T20:06:30.264Z,8.93
2022-10-22T20:08:58.432Z,5.70
2022-10-22T20:11:28.456Z,6.93
2022-10-22T20:13:57.414Z,6.00
2022-10-22T20:16:28.725Z,6.68
2022-10-22T20:19:01.297Z,5.15
2022-10-22T20:21:29.745Z,9.63
2022-10-22T20:23:58.064Z,8.57
2022-10-22T20:26:28.510Z,9.98
2022-10-22T20:28:57.494Z,8.10
2022-10-22T20:31:28.098Z,10.90
2022-10-22T20:34:01.293Z,13.35
2022-10-22T20:36:30.377Z,12.60
2022-10-22T20:39:10.674Z,13.90
2022-10-22T20:41:40.624Z,7.35
2022-10-22T20:44:17.559Z,9.43
2022-10-22T20:46:45.697Z,7.15
2022-10-22T20:49:15.915Z,9.05
2022-10-22T20:51:44.159Z,9.65
2022-10-22T20:54:12.264Z,13.02
2022-10-22T20:56:40.661Z,7.72
2022-10-22T20:59:11.056Z,3.95
2022-10-22T21:01:45.036Z,6.90
2022-10-22T21:04:13.003Z,6.35
2022-10-22T21:06:43.101Z,9.18
2022-10-22T21:09:13.386Z,4.30
2022-10-22T21:11:42.294Z,6.97
2022-10-22T21:14:11.724Z,11.23
2022-10-22T21:16:49.536Z,6.75
2022-10-22T21:19:18.462Z,8.48
2022-10-22T21:21:46.185Z,10.25
2022-10-22T21:24:14.027Z,7.75
2022-10-22T21:26:42.992Z,8.63
2022-10-22T21:29:11.468Z,12.63
2022-10-22T21:31:40.567Z,12.00
2022-10-22T21:34:08.733Z,7.82
2022-10-22T21:36:36.754Z,10.18
2022-10-22T21:39:04.567Z,8.18
2022-10-22T21:41:32.414Z,7.10
2022-10-22T21:44:00.343Z,6.85
2022-10-22T21:46:28.667Z,7.75
2022-10-22T21:49:02.235Z,6.88
2022-10-22T21:51:32.247Z,9.98
2022-10-22T21:54:00.450Z,7.97
2022-10-22T21:56:36.035Z,4.40
2022-10-22T21:59:04.760Z,11.10
2022-10-22T22:01:32.978Z,6.82
2022-10-22T22:04:01.145Z,5.95
2022-10-22T22:06:33.144Z,5.63
2022-10-22T22:09:02.552Z,12.20
2022-10-22T22:11:30.771Z,9.13
2022-10-22T22:14:00.262Z,5.07
2022-10-22T22:16:30.662Z,12.00
2022-10-22T22:21:39.745Z,5.85
2022-10-22T22:24:08.666Z,9.40
2022-10-22T22:26:37.416Z,6.22
2022-10-22T22:29:05.717Z,4.15
2022-10-22T22:31:34.585Z,4.38
2022-10-22T22:34:13.031Z,7.68
2022-10-22T22:36:42.958Z,8.30
2022-10-22T22:39:16.516Z,4.78
2022-10-22T22:41:44.819Z,4.22
2022-10-22T22:44:13.249Z,4.65
2022-10-22T22:46:41.300Z,6.80
2022-10-22T22:49:09.592Z,6.88
2022-10-22T22:51:37.489Z,7.15
2022-10-22T22:54:05.260Z,5.82
2022-10-22T22:56:34.725Z,5.45
2022-10-22T22:59:04.295Z,4.70
2022-10-22T23:01:38.038Z,4.78
2022-10-22T23:04:13.374Z,3.25
2022-10-22T23:06:41.350Z,6.13
2022-10-22T23:09:11.865Z,5.03
2022-10-22T23:11:40.695Z,4.68
2022-10-22T23:14:10.310Z,6.03
2022-10-22T23:16:40.230Z,4.03
2022-10-22T23:19:08.684Z,6.00
2022-10-22T23:21:39.895Z,3.55
2022-10-22T23:24:10.770Z,3.45
2022-10-22T23:26:43.916Z,4.82
2022-10-22T23:29:14.701Z,5.15
2022-10-22T23:31:43.340Z,5.10
2022-10-22T23:34:12.745Z,3.13
2022-10-22T23:36:40.762Z,3.70
2022-10-22T23:39:10.778Z,5.35
2022-10-22T23:41:39.328Z,3.47
2022-10-22T23:44:08.740Z,5.10
2022-10-22T23:46:38.771Z,3.65
2022-10-22T23:49:08.253Z,3.95
2022-10-22T23:51:36.281Z,5.15
2022-10-22T23:54:06.158Z,4.35
2022-10-22T23:56:34.919Z,2.70
2022-10-22T23:59:03.277Z,5.78
